Bowie, Colorado
Current Conditions -  °F | °C
As of 9:35 PM on Monday 20 Oct 2014 (Local Time) from KAJZ Reporting Station
Scattered Clouds Scattered Clouds  
Wind Chill: 60°   Ceiling: Unl
Heat Index: 60°   Visibility: 10mi
Dew Point: 41°   Wind: 6mph
Humidity: 49%   Direction: 90°E
Pressure: 30.1"   Gusts: NA
Location:  38.9841°N, 107.597°W
Report Text: KAJZ 210335Z AUTO 09005KT 10SM SCT100 16/05 A3010 RMK AO2 T01550048
Loading
Personal Weather Stations






























Interactive Weather Map
Tropical Storm Tracking
New forecast layout! Learn more

10-Day Weather Forecast

Advertisements
Track Severe Weather on mobile